sensor_id;sensor_type;location;lat;lon;timestamp;pressure;altitude;pressure_sealevel;temperature;humidity
64521;BME280;50896;46.714;17.322;2023-11-21T00:02:26;100017.06;;;6.66;100.00
64521;BME280;50896;46.714;17.322;2023-11-21T00:04:54;100008.97;;;6.68;100.00
64521;BME280;50896;46.714;17.322;2023-11-21T00:07:21;100015.44;;;6.56;100.00
64521;BME280;50896;46.714;17.322;2023-11-21T00:09:48;100017.84;;;6.49;100.00
64521;BME280;50896;46.714;17.322;2023-11-21T00:12:15;100021.59;;;6.46;100.00
64521;BME280;50896;46.714;17.322;2023-11-21T00:14:42;100017.00;;;6.48;100.00
64521;BME280;50896;46.714;17.322;2023-11-21T00:17:09;100010.34;;;6.44;100.00
64521;BME280;50896;46.714;17.322;2023-11-21T00:19:36;100012.00;;;6.45;100.00
64521;BME280;50896;46.714;17.322;2023-11-21T00:22:03;100014.25;;;6.40;100.00
64521;BME280;50896;46.714;17.322;2023-11-21T00:24:30;100019.09;;;6.45;100.00
64521;BME280;50896;46.714;17.322;2023-11-21T00:26:58;100010.47;;;6.43;100.00
64521;BME280;50896;46.714;17.322;2023-11-21T00:29:25;100015.63;;;6.44;100.00
64521;BME280;50896;46.714;17.322;2023-11-21T00:31:52;100009.78;;;6.50;100.00
64521;BME280;50896;46.714;17.322;2023-11-21T00:34:20;100006.56;;;6.47;100.00
64521;BME280;50896;46.714;17.322;2023-11-21T00:36:46;100008.78;;;6.52;100.00
64521;BME280;50896;46.714;17.322;2023-11-21T00:39:13;100016.84;;;6.50;100.00
64521;BME280;50896;46.714;17.322;2023-11-21T00:41:40;100009.22;;;6.47;100.00
64521;BME280;50896;46.714;17.322;2023-11-21T00:44:08;100001.75;;;6.42;100.00
64521;BME280;50896;46.714;17.322;2023-11-21T00:46:35;100010.34;;;6.44;100.00
64521;BME280;50896;46.714;17.322;2023-11-21T00:49:02;100008.09;;;6.49;100.00
64521;BME280;50896;46.714;17.322;2023-11-21T00:51:30;100007.13;;;6.50;100.00
64521;BME280;50896;46.714;17.322;2023-11-21T00:53:58;100008.09;;;6.49;100.00
64521;BME280;50896;46.714;17.322;2023-11-21T00:56:25;100008.66;;;6.53;100.00
64521;BME280;50896;46.714;17.322;2023-11-21T00:58:52;100013.94;;;6.53;100.00
64521;BME280;50896;46.714;17.322;2023-11-21T01:01:20;99999.59;;;6.56;100.00
64521;BME280;50896;46.714;17.322;2023-11-21T01:03:48;100000.94;;;6.60;100.00
64521;BME280;50896;46.714;17.322;2023-11-21T01:06:15;99984.72;;;6.55;100.00
64521;BME280;50896;46.714;17.322;2023-11-21T01:08:44;99988.91;;;6.57;100.00
64521;BME280;50896;46.714;17.322;2023-11-21T01:11:11;99975.13;;;6.54;100.00
64521;BME280;50896;46.714;17.322;2023-11-21T01:13:42;99972.59;;;6.62;100.00
64521;BME280;50896;46.714;17.322;2023-11-21T01:16:09;99969.75;;;6.73;100.00
64521;BME280;50896;46.714;17.322;2023-11-21T01:18:36;99973.47;;;6.80;100.00
64521;BME280;50896;46.714;17.322;2023-11-21T01:21:03;99968.88;;;6.82;100.00
64521;BME280;50896;46.714;17.322;2023-11-21T01:23:30;99957.34;;;6.74;100.00
64521;BME280;50896;46.714;17.322;2023-11-21T01:25:57;99959.03;;;6.75;100.00
64521;BME280;50896;46.714;17.322;2023-11-21T01:28:24;99963.25;;;6.67;100.00
64521;BME280;50896;46.714;17.322;2023-11-21T01:30:51;99961.53;;;6.76;100.00
64521;BME280;50896;46.714;17.322;2023-11-21T01:33:18;99954.03;;;6.72;100.00
64521;BME280;50896;46.714;17.322;2023-11-21T01:35:45;99964.63;;;6.72;100.00
64521;BME280;50896;46.714;17.322;2023-11-21T01:38:13;99948.38;;;6.66;100.00
64521;BME280;50896;46.714;17.322;2023-11-21T01:40:41;99945.44;;;6.70;100.00
64521;BME280;50896;46.714;17.322;2023-11-21T01:43:08;99938.50;;;6.69;100.00
64521;BME280;50896;46.714;17.322;2023-11-21T01:45:35;99937.13;;;6.64;100.00
64521;BME280;50896;46.714;17.322;2023-11-21T01:48:03;99942.56;;;6.63;100.00
64521;BME280;50896;46.714;17.322;2023-11-21T01:50:30;99944.22;;;6.64;100.00
64521;BME280;50896;46.714;17.322;2023-11-21T01:52:58;99933.88;;;6.71;100.00
64521;BME280;50896;46.714;17.322;2023-11-21T01:55:25;99932.91;;;6.72;100.00
64521;BME280;50896;46.714;17.322;2023-11-21T01:57:55;99945.97;;;6.73;100.00
64521;BME280;50896;46.714;17.322;2023-11-21T02:00:23;99938.34;;;6.70;100.00
64521;BME280;50896;46.714;17.322;2023-11-21T02:02:51;99935.25;;;6.75;100.00
64521;BME280;50896;46.714;17.322;2023-11-21T02:05:18;99944.44;;;6.71;100.00
64521;BME280;50896;46.714;17.322;2023-11-21T02:07:46;99924.44;;;6.68;100.00
64521;BME280;50896;46.714;17.322;2023-11-21T02:10:15;99928.75;;;6.69;100.00
64521;BME280;50896;46.714;17.322;2023-11-21T02:12:42;99925.66;;;6.74;100.00
64521;BME280;50896;46.714;17.322;2023-11-21T02:15:13;99919.56;;;6.73;100.00
64521;BME280;50896;46.714;17.322;2023-11-21T02:17:53;99910.25;;;6.69;100.00
64521;BME280;50896;46.714;17.322;2023-11-21T02:20:22;99901.28;;;6.62;100.00
64521;BME280;50896;46.714;17.322;2023-11-21T02:22:54;99911.31;;;6.76;100.00
64521;BME280;50896;46.714;17.322;2023-11-21T02:25:29;99906.19;;;6.75;100.00
64521;BME280;50896;46.714;17.322;2023-11-21T02:27:58;99917.31;;;6.78;100.00
64521;BME280;50896;46.714;17.322;2023-11-21T02:30:25;99917.47;;;6.77;100.00
64521;BME280;50896;46.714;17.322;2023-11-21T02:32:55;99923.41;;;6.79;100.00
64521;BME280;50896;46.714;17.322;2023-11-21T02:35:24;99920.03;;;6.87;100.00
64521;BME280;50896;46.714;17.322;2023-11-21T02:37:54;99916.38;;;6.88;100.00
64521;BME280;50896;46.714;17.322;2023-11-21T02:40:22;99924.38;;;6.96;100.00
64521;BME280;50896;46.714;17.322;2023-11-21T02:42:51;99920.03;;;6.87;100.00
64521;BME280;50896;46.714;17.322;2023-11-21T02:45:19;99929.84;;;6.94;100.00
64521;BME280;50896;46.714;17.322;2023-11-21T02:47:48;99927.09;;;6.86;100.00
64521;BME280;50896;46.714;17.322;2023-11-21T02:50:20;99928.94;;;6.86;100.00
64521;BME280;50896;46.714;17.322;2023-11-21T02:52:50;99924.16;;;6.89;100.00
64521;BME280;50896;46.714;17.322;2023-11-21T02:55:19;99935.50;;;6.99;100.00
64521;BME280;50896;46.714;17.322;2023-11-21T02:57:46;99941.31;;;7.03;100.00
64521;BME280;50896;46.714;17.322;2023-11-21T03:00:13;99934.00;;;6.97;100.00
64521;BME280;50896;46.714;17.322;2023-11-21T03:02:42;99937.91;;;6.93;100.00
64521;BME280;50896;46.714;17.322;2023-11-21T03:05:10;99945.69;;;6.94;100.00
64521;BME280;50896;46.714;17.322;2023-11-21T03:07:38;99945.94;;;7.01;100.00
64521;BME280;50896;46.714;17.322;2023-11-21T03:10:09;99958.53;;;7.07;100.00
64521;BME280;50896;46.714;17.322;2023-11-21T03:12:38;99953.53;;;7.04;100.00
64521;BME280;50896;46.714;17.322;2023-11-21T03:15:06;99957.47;;;7.00;100.00
64521;BME280;50896;46.714;17.322;2023-11-21T03:17:34;99959.88;;;6.93;100.00
64521;BME280;50896;46.714;17.322;2023-11-21T03:20:02;99962.00;;;6.90;100.00
64521;BME280;50896;46.714;17.322;2023-11-21T03:22:30;99954.97;;;6.80;100.00
64521;BME280;50896;46.714;17.322;2023-11-21T03:24:58;99943.03;;;6.76;100.00
64521;BME280;50896;46.714;17.322;2023-11-21T03:27:26;99952.78;;;6.76;100.00
64521;BME280;50896;46.714;17.322;2023-11-21T03:29:53;99955.41;;;6.76;100.00
64521;BME280;50896;46.714;17.322;2023-11-21T03:32:21;99965.38;;;6.82;100.00
64521;BME280;50896;46.714;17.322;2023-11-21T03:34:56;99971.06;;;6.87;100.00
64521;BME280;50896;46.714;17.322;2023-11-21T03:37:25;99985.78;;;6.90;100.00
64521;BME280;50896;46.714;17.322;2023-11-21T03:39:55;99991.38;;;6.87;100.00
64521;BME280;50896;46.714;17.322;2023-11-21T03:42:24;99990.69;;;6.84;100.00
64521;BME280;50896;46.714;17.322;2023-11-21T03:44:53;99996.66;;;6.87;100.00
64521;BME280;50896;46.714;17.322;2023-11-21T03:47:21;99998.31;;;6.88;100.00
64521;BME280;50896;46.714;17.322;2023-11-21T03:49:48;100001.72;;;6.98;100.00
64521;BME280;50896;46.714;17.322;2023-11-21T03:52:15;99993.66;;;6.99;100.00
64521;BME280;50896;46.714;17.322;2023-11-21T03:54:43;99998.31;;;6.88;100.00
64521;BME280;50896;46.714;17.322;2023-11-21T03:57:11;99998.44;;;6.86;100.00
64521;BME280;50896;46.714;17.322;2023-11-21T03:59:41;100003.00;;;6.94;100.00
64521;BME280;50896;46.714;17.322;2023-11-21T04:02:09;99995.75;;;6.96;100.00
64521;BME280;50896;46.714;17.322;2023-11-21T04:04:36;99997.81;;;7.02;100.00
64521;BME280;50896;46.714;17.322;2023-11-21T04:07:04;99994.41;;;7.10;100.00
64521;BME280;50896;46.714;17.322;2023-11-21T04:09:31;99995.25;;;7.10;100.00
64521;BME280;50896;46.714;17.322;2023-11-21T04:11:58;99988.31;;;7.09;100.00
64521;BME280;50896;46.714;17.322;2023-11-21T04:14:25;100003.63;;;7.06;100.00
64521;BME280;50896;46.714;17.322;2023-11-21T04:16:52;99999.84;;;7.08;100.00
64521;BME280;50896;46.714;17.322;2023-11-21T04:19:20;100007.63;;;7.10;100.00
64521;BME280;50896;46.714;17.322;2023-11-21T04:21:47;100011.94;;;7.11;100.00
64521;BME280;50896;46.714;17.322;2023-11-21T04:24:14;100026.97;;;7.10;100.00
64521;BME280;50896;46.714;17.322;2023-11-21T04:26:41;100037.69;;;7.27;100.00
64521;BME280;50896;46.714;17.322;2023-11-21T04:29:08;100040.81;;;7.40;100.00
64521;BME280;50896;46.714;17.322;2023-11-21T04:31:35;100035.53;;;7.40;100.00
64521;BME280;50896;46.714;17.322;2023-11-21T04:34:02;100026.31;;;7.26;100.00
64521;BME280;50896;46.714;17.322;2023-11-21T04:36:30;100012.34;;;7.16;100.00
64521;BME280;50896;46.714;17.322;2023-11-21T04:38:57;100024.53;;;7.17;100.00
64521;BME280;50896;46.714;17.322;2023-11-21T04:41:24;100032.88;;;7.22;100.00
64521;BME280;50896;46.714;17.322;2023-11-21T04:43:51;100041.13;;;7.37;100.00
64521;BME280;50896;46.714;17.322;2023-11-21T04:46:18;100039.84;;;7.41;100.00
64521;BME280;50896;46.714;17.322;2023-11-21T04:48:45;100052.75;;;7.44;100.00
64521;BME280;50896;46.714;17.322;2023-11-21T04:51:12;100038.63;;;7.35;100.00
64521;BME280;50896;46.714;17.322;2023-11-21T04:53:39;100043.59;;;7.21;100.00
64521;BME280;50896;46.714;17.322;2023-11-21T04:56:06;100048.06;;;7.20;100.00
64521;BME280;50896;46.714;17.322;2023-11-21T04:58:33;100043.91;;;7.17;100.00
64521;BME280;50896;46.714;17.322;2023-11-21T05:01:00;100048.06;;;7.20;100.00
64521;BME280;50896;46.714;17.322;2023-11-21T05:03:29;100039.81;;;7.23;100.00
64521;BME280;50896;46.714;17.322;2023-11-21T05:05:56;100030.16;;;7.32;100.00
64521;BME280;50896;46.714;17.322;2023-11-21T05:08:23;100029.84;;;7.35;100.00
64521;BME280;50896;46.714;17.322;2023-11-21T05:10:50;100030.53;;;7.37;100.00
64521;BME280;50896;46.714;17.322;2023-11-21T05:13:20;100029.34;;;7.49;100.00
64521;BME280;50896;46.714;17.322;2023-11-21T05:15:46;100027.97;;;7.45;100.00
64521;BME280;50896;46.714;17.322;2023-11-21T05:18:13;100038.31;;;7.57;100.00
64521;BME280;50896;46.714;17.322;2023-11-21T05:20:41;100038.31;;;7.57;100.00
64521;BME280;50896;46.714;17.322;2023-11-21T05:23:08;100048.44;;;7.79;100.00
64521;BME280;50896;46.714;17.322;2023-11-21T05:25:35;100049.72;;;7.75;100.00
64521;BME280;50896;46.714;17.322;2023-11-21T05:28:07;100061.03;;;7.85;100.00
64521;BME280;50896;46.714;17.322;2023-11-21T05:30:33;100068.53;;;7.90;100.00
64521;BME280;50896;46.714;17.322;2023-11-21T05:33:01;100070.00;;;7.84;100.00
64521;BME280;50896;46.714;17.322;2023-11-21T05:35:27;100064.63;;;7.76;100.00
64521;BME280;50896;46.714;17.322;2023-11-21T05:37:54;100060.84;;;7.79;100.00
64521;BME280;50896;46.714;17.322;2023-11-21T05:40:22;100058.47;;;7.76;100.00
64521;BME280;50896;46.714;17.322;2023-11-21T05:42:51;100051.00;;;7.71;100.00
64521;BME280;50896;46.714;17.322;2023-11-21T05:45:18;100051.78;;;7.63;100.00
64521;BME280;50896;46.714;17.322;2023-11-21T05:47:46;100059.34;;;7.58;100.00
64521;BME280;50896;46.714;17.322;2023-11-21T05:50:15;100059.25;;;7.50;100.00
64521;BME280;50896;46.714;17.322;2023-11-21T05:52:44;100059.25;;;7.50;100.00
64521;BME280;50896;46.714;17.322;2023-11-21T05:55:12;100070.97;;;7.47;100.00
64521;BME280;50896;46.714;17.322;2023-11-21T05:57:40;100080.56;;;7.48;100.00
64521;BME280;50896;46.714;17.322;2023-11-21T06:00:12;100077.22;;;7.46;100.00
64521;BME280;50896;46.714;17.322;2023-11-21T06:02:52;100065.28;;;7.42;100.00
64521;BME280;50896;46.714;17.322;2023-11-21T06:05:25;100062.06;;;7.48;100.00
64521;BME280;50896;46.714;17.322;2023-11-21T06:07:55;100061.22;;;7.48;100.00
64521;BME280;50896;46.714;17.322;2023-11-21T06:10:25;100060.31;;;7.57;100.00
64521;BME280;50896;46.714;17.322;2023-11-21T06:12:52;100073.69;;;7.56;100.00
64521;BME280;50896;46.714;17.322;2023-11-21T06:15:20;100057.50;;;7.59;100.00
64521;BME280;50896;46.714;17.322;2023-11-21T06:17:48;100057.44;;;7.50;100.00
64521;BME280;50896;46.714;17.322;2023-11-21T06:20:22;100068.31;;;7.47;100.00
64521;BME280;50896;46.714;17.322;2023-11-21T06:22:50;100068.41;;;7.56;100.00
64521;BME280;50896;46.714;17.322;2023-11-21T06:25:17;100066.28;;;7.59;100.00
64521;BME280;50896;46.714;17.322;2023-11-21T06:27:46;100060.47;;;7.56;100.00
64521;BME280;50896;46.714;17.322;2023-11-21T06:30:14;100070.38;;;7.53;100.00
64521;BME280;50896;46.714;17.322;2023-11-21T06:32:42;100073.06;;;7.62;100.00
64521;BME280;50896;46.714;17.322;2023-11-21T06:35:14;100076.09;;;7.67;100.00
64521;BME280;50896;46.714;17.322;2023-11-21T06:37:43;100074.09;;;7.61;100.00
64521;BME280;50896;46.714;17.322;2023-11-21T06:40:17;100070.97;;;7.65;100.00
64521;BME280;50896;46.714;17.322;2023-11-21T06:42:48;100072.63;;;7.84;100.00
64521;BME280;50896;46.714;17.322;2023-11-21T06:45:16;100079.44;;;7.87;100.00
64521;BME280;50896;46.714;17.322;2023-11-21T06:47:43;100075.94;;;7.86;100.00
64521;BME280;50896;46.714;17.322;2023-11-21T06:50:10;100076.47;;;7.90;100.00
64521;BME280;50896;46.714;17.322;2023-11-21T06:52:37;100078.34;;;7.98;100.00
64521;BME280;50896;46.714;17.322;2023-11-21T06:55:05;100081.38;;;8.03;100.00
64521;BME280;50896;46.714;17.322;2023-11-21T06:57:35;100084.69;;;8.05;100.00
64521;BME280;50896;46.714;17.322;2023-11-21T07:00:02;100089.16;;;8.04;100.00
64521;BME280;50896;46.714;17.322;2023-11-21T07:02:30;100097.25;;;8.03;100.00
64521;BME280;50896;46.714;17.322;2023-11-21T07:04:57;100093.38;;;8.15;100.00
64521;BME280;50896;46.714;17.322;2023-11-21T07:07:24;100108.22;;;8.08;100.00
64521;BME280;50896;46.714;17.322;2023-11-21T07:09:50;100104.22;;;8.04;100.00
64521;BME280;50896;46.714;17.322;2023-11-21T07:12:18;100093.56;;;7.96;100.00
64521;BME280;50896;46.714;17.322;2023-11-21T07:14:45;100087.88;;;7.91;100.00
64521;BME280;50896;46.714;17.322;2023-11-21T07:17:12;100095.69;;;7.92;100.00
64521;BME280;50896;46.714;17.322;2023-11-21T07:19:39;100092.22;;;7.92;100.00
64521;BME280;50896;46.714;17.322;2023-11-21T07:22:06;100087.22;;;7.89;100.00
64521;BME280;50896;46.714;17.322;2023-11-21T07:24:33;100086.75;;;7.93;100.00
64521;BME280;50896;46.714;17.322;2023-11-21T07:27:00;100076.75;;;8.05;100.00
64521;BME280;50896;46.714;17.322;2023-11-21T07:29:27;100079.78;;;8.10;100.00
64521;BME280;50896;46.714;17.322;2023-11-21T07:31:56;100077.28;;;8.09;100.00
64521;BME280;50896;46.714;17.322;2023-11-21T07:34:23;100083.38;;;8.09;100.00
64521;BME280;50896;46.714;17.322;2023-11-21T07:36:50;100077.66;;;8.14;100.00
64521;BME280;50896;46.714;17.322;2023-11-21T07:39:17;100074.31;;;8.12;100.00
64521;BME280;50896;46.714;17.322;2023-11-21T07:41:44;100078.16;;;8.17;100.00
64521;BME280;50896;46.714;17.322;2023-11-21T07:44:18;100082.72;;;8.07;100.00
64521;BME280;50896;46.714;17.322;2023-11-21T07:46:47;100081.22;;;8.04;100.00
64521;BME280;50896;46.714;17.322;2023-11-21T07:49:14;100072.13;;;8.07;100.00
64521;BME280;50896;46.714;17.322;2023-11-21T07:51:47;100065.94;;;8.16;100.00
64521;BME280;50896;46.714;17.322;2023-11-21T07:54:14;100056.78;;;8.11;100.00
64521;BME280;50896;46.714;17.322;2023-11-21T07:56:42;100061.06;;;8.12;100.00
64521;BME280;50896;46.714;17.322;2023-11-21T07:59:09;100053.59;;;8.07;100.00
64521;BME280;50896;46.714;17.322;2023-11-21T08:01:36;100065.94;;;8.16;100.00
64521;BME280;50896;46.714;17.322;2023-11-21T08:04:03;100074.31;;;8.12;100.00
64521;BME280;50896;46.714;17.322;2023-11-21T08:06:31;100074.94;;;8.06;100.00
64521;BME280;50896;46.714;17.322;2023-11-21T08:08:58;100079.09;;;8.08;100.00
64521;BME280;50896;46.714;17.322;2023-11-21T08:11:25;100078.25;;;8.08;100.00
64521;BME280;50896;46.714;17.322;2023-11-21T08:13:58;100081.59;;;8.10;100.00
64521;BME280;50896;46.714;17.322;2023-11-21T08:16:25;100073.81;;;8.08;100.00
64521;BME280;50896;46.714;17.322;2023-11-21T08:18:52;100054.75;;;8.04;100.00
64521;BME280;50896;46.714;17.322;2023-11-21T08:21:21;100048.53;;;8.14;100.00
64521;BME280;50896;46.714;17.322;2023-11-21T08:23:47;100039.38;;;8.08;100.00
64521;BME280;50896;46.714;17.322;2023-11-21T08:26:23;100047.84;;;8.12;100.00
64521;BME280;50896;46.714;17.322;2023-11-21T08:28:50;100050.31;;;8.13;100.00
64521;BME280;50896;46.714;17.322;2023-11-21T08:31:26;100071.31;;;8.07;100.00
64521;BME280;50896;46.714;17.322;2023-11-21T08:33:53;100065.88;;;8.08;100.00
64521;BME280;50896;46.714;17.322;2023-11-21T08:36:22;100048.97;;;8.09;100.00
64521;BME280;50896;46.714;17.322;2023-11-21T08:38:52;100052.00;;;8.14;100.00
64521;BME280;50896;46.714;17.322;2023-11-21T08:41:19;100038.09;;;8.12;100.00
64521;BME280;50896;46.714;17.322;2023-11-21T08:43:49;100040.59;;;8.14;100.00
64521;BME280;50896;46.714;17.322;2023-11-21T08:46:17;100037.47;;;8.18;100.00
64521;BME280;50896;46.714;17.322;2023-11-21T08:48:44;100042.38;;;8.13;100.00
64521;BME280;50896;46.714;17.322;2023-11-21T08:51:11;100051.56;;;8.27;100.00
64521;BME280;50896;46.714;17.322;2023-11-21T08:53:38;100051.41;;;8.20;100.00
64521;BME280;50896;46.714;17.322;2023-11-21T08:56:06;100055.56;;;8.31;100.00
64521;BME280;50896;46.714;17.322;2023-11-21T08:58:33;100054.13;;;8.37;100.00
64521;BME280;50896;46.714;17.322;2023-11-21T09:01:00;100053.47;;;8.35;100.00
64521;BME280;50896;46.714;17.322;2023-11-21T09:03:27;100071.19;;;8.34;100.00
64521;BME280;50896;46.714;17.322;2023-11-21T09:05:55;100063.34;;;8.33;100.00
64521;BME280;50896;46.714;17.322;2023-11-21T09:08:22;100071.63;;;8.30;100.00
64521;BME280;50896;46.714;17.322;2023-11-21T09:10:49;100069.50;;;8.33;100.00
64521;BME280;50896;46.714;17.322;2023-11-21T09:13:17;100065.66;;;8.28;100.00
64521;BME280;50896;46.714;17.322;2023-11-21T09:15:44;100071.78;;;8.28;100.00
64521;BME280;50896;46.714;17.322;2023-11-21T09:18:13;100076.59;;;8.33;100.00
64521;BME280;50896;46.714;17.322;2023-11-21T09:20:41;100071.31;;;8.33;100.00
64521;BME280;50896;46.714;17.322;2023-11-21T09:23:10;100076.59;;;8.33;100.00
64521;BME280;50896;46.714;17.322;2023-11-21T09:25:37;100065.88;;;8.34;100.00
64521;BME280;50896;46.714;17.322;2023-11-21T09:28:05;100067.53;;;8.35;100.00
64521;BME280;50896;46.714;17.322;2023-11-21T09:30:35;100066.22;;;8.39;100.00
64521;BME280;50896;46.714;17.322;2023-11-21T09:33:03;100057.81;;;8.44;100.00
64521;BME280;50896;46.714;17.322;2023-11-21T09:35:34;100057.81;;;8.44;100.00
64521;BME280;50896;46.714;17.322;2023-11-21T09:38:01;100046.69;;;8.41;100.00
64521;BME280;50896;46.714;17.322;2023-11-21T09:40:32;100050.31;;;8.39;100.00
64521;BME280;50896;46.714;17.322;2023-11-21T09:43:00;100045.34;;;8.36;100.00
64521;BME280;50896;46.714;17.322;2023-11-21T09:45:34;100046.00;;;8.38;100.00
64521;BME280;50896;46.714;17.322;2023-11-21T09:48:02;100042.03;;;8.34;100.00
64521;BME280;50896;46.714;17.322;2023-11-21T09:50:29;100040.22;;;8.35;100.00
64521;BME280;50896;46.714;17.322;2023-11-21T09:52:59;100035.28;;;8.40;100.00
64521;BME280;50896;46.714;17.322;2023-11-21T09:55:28;100033.28;;;8.42;100.00
64521;BME280;50896;46.714;17.322;2023-11-21T09:57:56;100030.34;;;8.45;100.00
64521;BME280;50896;46.714;17.322;2023-11-21T10:00:23;100025.19;;;8.44;100.00
64521;BME280;50896;46.714;17.322;2023-11-21T10:02:52;100028.41;;;8.47;100.00
64521;BME280;50896;46.714;17.322;2023-11-21T10:05:20;100022.09;;;8.48;100.00
64521;BME280;50896;46.714;17.322;2023-11-21T10:07:53;100021.63;;;8.53;100.00
64521;BME280;50896;46.714;17.322;2023-11-21T10:10:24;100021.97;;;8.58;100.00
64521;BME280;50896;46.714;17.322;2023-11-21T10:12:55;100006.06;;;8.58;100.00
64521;BME280;50896;46.714;17.322;2023-11-21T10:15:23;100013.06;;;8.67;100.00
64521;BME280;50896;46.714;17.322;2023-11-21T10:17:55;100019.84;;;8.62;100.00
64521;BME280;50896;46.714;17.322;2023-11-21T10:20:25;100006.06;;;8.58;100.00
64521;BME280;50896;46.714;17.322;2023-11-21T10:22:52;100015.84;;;8.58;100.00
64521;BME280;50896;46.714;17.322;2023-11-21T10:25:19;100021.66;;;8.61;100.00
64521;BME280;50896;46.714;17.322;2023-11-21T10:27:48;100021.66;;;8.61;100.00
64521;BME280;50896;46.714;17.322;2023-11-21T10:30:18;100027.78;;;8.62;100.00
64521;BME280;50896;46.714;17.322;2023-11-21T10:32:46;100032.28;;;8.61;100.00
64521;BME280;50896;46.714;17.322;2023-11-21T10:35:13;100029.47;;;8.63;100.00
64521;BME280;50896;46.714;17.322;2023-11-21T10:37:40;100028.31;;;8.65;100.00
64521;BME280;50896;46.714;17.322;2023-11-21T10:40:11;100014.06;;;8.66;100.00
64521;BME280;50896;46.714;17.322;2023-11-21T10:42:41;100022.03;;;8.75;100.00
64521;BME280;50896;46.714;17.322;2023-11-21T10:45:08;100016.44;;;8.78;100.00
64521;BME280;50896;46.714;17.322;2023-11-21T10:47:42;100012.78;;;8.79;100.00
64521;BME280;50896;46.714;17.322;2023-11-21T10:50:09;100016.28;;;8.79;100.00
64521;BME280;50896;46.714;17.322;2023-11-21T10:52:41;100005.69;;;8.79;100.00
64521;BME280;50896;46.714;17.322;2023-11-21T10:55:19;100006.16;;;8.83;100.00
64521;BME280;50896;46.714;17.322;2023-11-21T10:57:49;99998.03;;;8.84;100.00
64521;BME280;50896;46.714;17.322;2023-11-21T11:00:18;99999.41;;;8.97;100.00
64521;BME280;50896;46.714;17.322;2023-11-21T11:02:54;99996.28;;;8.93;100.00
64521;BME280;50896;46.714;17.322;2023-11-21T11:05:23;100002.41;;;8.94;100.00
64521;BME280;50896;46.714;17.322;2023-11-21T11:07:51;100006.03;;;8.93;100.00
64521;BME280;50896;46.714;17.322;2023-11-21T11:10:27;100004.34;;;8.92;100.00
64521;BME280;50896;46.714;17.322;2023-11-21T11:12:57;100003.06;;;9.04;100.00
64521;BME280;50896;46.714;17.322;2023-11-21T11:15:26;99999.22;;;8.90;100.00
64521;BME280;50896;46.714;17.322;2023-11-21T11:17:55;100005.03;;;8.94;100.00
64521;BME280;50896;46.714;17.322;2023-11-21T11:20:30;100009.72;;;9.08;100.00
64521;BME280;50896;46.714;17.322;2023-11-21T11:29:23;100001.75;;;9.08;100.00
64521;BME280;50896;46.714;17.322;2023-11-21T11:32:07;100001.59;;;9.10;100.00
64521;BME280;50896;46.714;17.322;2023-11-21T11:37:26;99995.63;;;8.99;100.00
64521;BME280;50896;46.714;17.322;2023-11-21T11:39:54;99998.13;;;9.09;100.00
64521;BME280;50896;46.714;17.322;2023-11-21T11:42:22;99988.03;;;9.13;100.00
64521;BME280;50896;46.714;17.322;2023-11-21T11:44:51;99987.19;;;9.12;100.00
64521;BME280;50896;46.714;17.322;2023-11-21T11:47:22;99987.34;;;9.11;100.00
64521;BME280;50896;46.714;17.322;2023-11-21T11:50:06;99981.88;;;9.12;100.00
64521;BME280;50896;46.714;17.322;2023-11-21T11:52:42;99978.75;;;9.09;100.00
64521;BME280;50896;46.714;17.322;2023-11-21T11:55:11;99991.50;;;9.21;100.00
64521;BME280;50896;46.714;17.322;2023-11-21T11:57:42;99986.34;;;9.12;100.00
64521;BME280;50896;46.714;17.322;2023-11-21T12:00:13;99993.00;;;9.16;100.00
64521;BME280;50896;46.714;17.322;2023-11-21T12:02:45;99981.88;;;9.12;100.00
64521;BME280;50896;46.714;17.322;2023-11-21T12:05:13;99986.53;;;9.10;100.00
64521;BME280;50896;46.714;17.322;2023-11-21T12:10:18;99992.28;;;9.05;100.00
64521;BME280;50896;46.714;17.322;2023-11-21T12:12:48;99982.19;;;9.01;100.00
64521;BME280;50896;46.714;17.322;2023-11-21T12:15:15;99986.34;;;9.03;100.00
64521;BME280;50896;46.714;17.322;2023-11-21T12:17:44;99979.69;;;8.99;100.00
64521;BME280;50896;46.714;17.322;2023-11-21T12:20:14;99987.50;;;9.01;100.00
64521;BME280;50896;46.714;17.322;2023-11-21T12:22:43;99977.56;;;9.03;100.00
64521;BME280;50896;46.714;17.322;2023-11-21T12:25:11;99974.75;;;9.04;100.00
64521;BME280;50896;46.714;17.322;2023-11-21T12:27:43;99972.13;;;9.13;100.00
64521;BME280;50896;46.714;17.322;2023-11-21T12:30:12;99963.81;;;9.07;100.00
64521;BME280;50896;46.714;17.322;2023-11-21T12:32:44;99976.91;;;9.09;100.00
64521;BME280;50896;46.714;17.322;2023-11-21T12:35:12;99968.59;;;9.04;100.00
64521;BME280;50896;46.714;17.322;2023-11-21T12:37:40;99975.41;;;9.06;100.00
64521;BME280;50896;46.714;17.322;2023-11-21T12:40:10;99974.41;;;9.07;100.00
64521;BME280;50896;46.714;17.322;2023-11-21T12:42:43;99968.75;;;9.02;100.00
64521;BME280;50896;46.714;17.322;2023-11-21T12:45:24;99968.94;;;9.09;100.00
64521;BME280;50896;46.714;17.322;2023-11-21T12:48:00;99961.16;;;9.07;100.00
64521;BME280;50896;46.714;17.322;2023-11-21T12:50:30;99961.97;;;9.08;100.00
64521;BME280;50896;46.714;17.322;2023-11-21T12:53:04;99972.94;;;9.13;100.00
64521;BME280;50896;46.714;17.322;2023-11-21T12:55:33;99965.78;;;9.14;100.00
64521;BME280;50896;46.714;17.322;2023-11-21T12:58:07;99968.28;;;9.15;100.00
64521;BME280;50896;46.714;17.322;2023-11-21T13:00:44;99971.63;;;9.17;100.00
64521;BME280;50896;46.714;17.322;2023-11-21T13:03:14;99974.09;;;9.19;100.00